Time;durP1;ratioP1;P1;durP2;ratioP2;P2;SDS_P1;SDS_P2;PMS_P1;PMS_P2;Temp;Humidity;BMP_temperature;BMP_pressure;BME280_temperature;BME280_humidity;BME280_pressure;Samples;Min_cycle;Max_cycle;Signal;HPM_P1;HPM_P2
2023/05/03 00:00:00;;;;;;;1.70;1.30;;;17.50;52.80;;;;;;5073529;28;20596;-60
2023/05/03 00:02:25;;;;;;;1.35;1.25;;;17.50;52.80;;;;;;5072342;28;20178;-60
2023/05/03 00:04:53;;;;;;;2.08;1.23;;;17.50;52.80;;;;;;5073260;28;20214;-60
2023/05/03 00:07:18;;;;;;;2.03;1.45;;;17.50;52.80;;;;;;5073112;28;20174;-59
2023/05/03 00:09:44;;;;;;;2.05;1.38;;;17.50;52.80;;;;;;5072645;28;20200;-58
2023/05/03 00:12:10;;;;;;;1.40;1.30;;;17.50;52.80;;;;;;5073088;28;20221;-59
2023/05/03 00:14:35;;;;;;;1.13;1.13;;;17.40;52.80;;;;;;5073144;28;20274;-58
2023/05/03 00:17:01;;;;;;;1.40;1.20;;;17.40;52.80;;;;;;5072515;28;20177;-59
2023/05/03 00:19:32;;;;;;;1.33;1.23;;;17.40;52.80;;;;;;5072856;28;20182;-59
2023/05/03 00:21:58;;;;;;;1.35;1.25;;;17.50;52.90;;;;;;5073210;28;20172;-58
2023/05/03 00:24:24;;;;;;;1.35;1.17;;;17.40;52.80;;;;;;5071841;28;20210;-59
2023/05/03 00:26:49;;;;;;;1.25;1.15;;;17.40;52.80;;;;;;5072884;28;20229;-58
2023/05/03 00:29:15;;;;;;;2.03;1.00;;;17.40;52.90;;;;;;5072701;28;20174;-59
2023/05/03 00:31:43;;;;;;;1.23;1.13;;;17.40;52.90;;;;;;5072226;28;20167;-60
2023/05/03 00:34:08;;;;;;;2.53;1.20;;;17.40;52.90;;;;;;5072442;28;20183;-59
2023/05/03 00:36:34;;;;;;;1.35;1.25;;;17.40;52.80;;;;;;5072979;28;20253;-59
2023/05/03 00:38:59;;;;;;;1.30;1.20;;;17.40;52.90;;;;;;5072298;28;20593;-59
2023/05/03 00:41:25;;;;;;;1.42;1.02;;;17.40;52.90;;;;;;5072497;28;20936;-59
2023/05/03 00:43:51;;;;;;;1.63;1.17;;;17.40;52.90;;;;;;5072911;28;20297;-59
2023/05/03 00:46:16;;;;;;;1.42;1.10;;;17.30;52.80;;;;;;5071940;28;20632;-59
2023/05/03 00:48:42;;;;;;;1.90;1.27;;;17.40;52.90;;;;;;5072867;28;20265;-59
2023/05/03 00:51:07;;;;;;;1.00;0.90;;;17.30;52.80;;;;;;5072550;28;20304;-58
2023/05/03 00:53:33;;;;;;;1.70;1.48;;;17.30;52.90;;;;;;5072154;28;20175;-58
2023/05/03 00:55:58;;;;;;;1.85;1.38;;;17.30;52.90;;;;;;5071338;28;20174;-59
2023/05/03 00:58:24;;;;;;;1.20;1.10;;;17.30;52.90;;;;;;5070472;28;20182;-59
2023/05/03 01:00:49;;;;;;;2.33;1.23;;;17.30;52.90;;;;;;5072769;28;20220;-58
2023/05/03 01:03:16;;;;;;;1.02;0.93;;;17.30;52.90;;;;;;5072164;28;20544;-59
2023/05/03 01:06:11;;;;;;;1.92;1.05;;;17.30;52.90;;;;;;5072217;28;20691;-59
2023/05/03 01:08:42;;;;;;;2.03;1.30;;;17.30;52.90;;;;;;5071619;28;20304;-58
2023/05/03 01:11:11;;;;;;;1.00;0.95;;;17.30;52.90;;;;;;5071039;28;20171;-58
2023/05/03 01:13:42;;;;;;;1.33;1.05;;;17.30;52.90;;;;;;5071695;28;20186;-59
2023/05/03 01:16:19;;;;;;;1.10;1.00;;;17.30;52.90;;;;;;5072032;28;20695;-59
2023/05/03 01:18:47;;;;;;;1.85;1.10;;;17.30;52.90;;;;;;5055606;28;20649;-59
2023/05/03 01:21:14;;;;;;;1.25;1.00;;;17.30;52.90;;;;;;5053940;28;20228;-59
2023/05/03 01:23:42;;;;;;;1.20;1.10;;;17.20;52.90;;;;;;5054663;28;20354;-59
2023/05/03 01:26:20;;;;;;;2.30;1.10;;;17.20;52.90;;;;;;5071885;28;20226;-59
2023/05/03 01:28:46;;;;;;;1.13;0.88;;;17.20;52.80;;;;;;5071811;28;20183;-59
2023/05/03 01:31:21;;;;;;;0.85;0.85;;;17.20;52.90;;;;;;5072078;28;20175;-59
2023/05/03 01:33:55;;;;;;;1.67;1.15;;;17.20;52.90;;;;;;5072803;28;20205;-59
2023/05/03 01:36:24;;;;;;;1.15;0.90;;;17.20;52.90;;;;;;5074868;28;20181;-59
2023/05/03 01:38:49;;;;;;;0.93;0.90;;;17.20;53.00;;;;;;5074637;28;20710;-59
2023/05/03 01:41:15;;;;;;;0.88;0.80;;;17.20;52.90;;;;;;5074899;28;20175;-59
2023/05/03 01:43:41;;;;;;;1.02;0.95;;;17.20;52.90;;;;;;5074819;28;20210;-59
2023/05/03 01:46:06;;;;;;;1.33;0.98;;;17.20;52.90;;;;;;5074562;28;20204;-59
2023/05/03 01:48:32;;;;;;;0.98;0.80;;;17.20;52.90;;;;;;5073958;28;20170;-59
2023/05/03 01:50:57;;;;;;;0.80;0.80;;;17.20;53.00;;;;;;5075818;28;20171;-59
2023/05/03 01:53:23;;;;;;;1.05;0.90;;;17.20;53.00;;;;;;5075672;28;20171;-59
2023/05/03 01:55:48;;;;;;;2.15;1.00;;;17.20;52.90;;;;;;5075269;28;20174;-59
2023/05/03 01:58:14;;;;;;;1.13;1.05;;;17.10;52.90;;;;;;5075677;28;20178;-59
2023/05/03 02:00:40;;;;;;;1.13;1.00;;;17.10;52.90;;;;;;5075800;28;20194;-59
2023/05/03 02:03:05;;;;;;;0.90;0.90;;;17.10;52.90;;;;;;5074523;28;20194;-59
2023/05/03 02:05:31;;;;;;;1.00;0.85;;;17.10;52.90;;;;;;5075573;28;20583;-59
2023/05/03 02:07:57;;;;;;;1.33;1.05;;;17.10;52.90;;;;;;5075517;28;20719;-58
2023/05/03 02:10:22;;;;;;;1.05;0.85;;;17.10;52.90;;;;;;5074645;28;20190;-59
2023/05/03 02:12:48;;;;;;;0.85;0.82;;;17.20;53.00;;;;;;5075572;28;20181;-58
2023/05/03 02:15:13;;;;;;;0.85;0.82;;;17.10;52.90;;;;;;5075160;28;20584;-59
2023/05/03 02:17:41;;;;;;;2.15;1.10;;;17.10;53.00;;;;;;5074666;28;20265;-59
2023/05/03 02:20:09;;;;;;;1.77;1.05;;;17.10;53.00;;;;;;5075095;28;20213;-59
2023/05/03 02:22:35;;;;;;;1.08;0.98;;;17.10;53.00;;;;;;5075280;28;20181;-59
2023/05/03 02:25:01;;;;;;;1.35;1.08;;;17.10;53.00;;;;;;5074631;28;20213;-58
2023/05/03 02:27:26;;;;;;;1.48;0.90;;;17.10;53.00;;;;;;5074788;28;20611;-59
2023/05/03 02:29:52;;;;;;;1.33;1.00;;;17.10;53.00;;;;;;5074620;28;20552;-59
2023/05/03 02:32:18;;;;;;;1.02;0.93;;;17.10;53.00;;;;;;5075038;28;20649;-59
2023/05/03 02:34:45;;;;;;;1.25;0.82;;;17.10;53.00;;;;;;5074960;28;20175;-60
2023/05/03 02:37:11;;;;;;;0.85;0.85;;;17.00;53.00;;;;;;5073939;28;20285;-59
2023/05/03 02:39:36;;;;;;;1.13;0.90;;;17.00;53.00;;;;;;5075151;28;20269;-59
2023/05/03 02:42:02;;;;;;;1.52;1.08;;;17.00;52.90;;;;;;5074984;28;20251;-58
2023/05/03 02:44:27;;;;;;;2.30;1.00;;;17.00;53.00;;;;;;5072596;28;20415;-59
2023/05/03 02:46:53;;;;;;;1.30;0.80;;;17.00;52.90;;;;;;5074841;28;20175;-59
2023/05/03 02:49:19;;;;;;;1.45;1.00;;;17.00;53.00;;;;;;5074495;28;20181;-59
2023/05/03 02:51:44;;;;;;;1.83;0.88;;;17.00;52.90;;;;;;5073991;28;20250;-59
2023/05/03 02:54:10;;;;;;;1.05;1.00;;;17.00;53.00;;;;;;5074413;28;20694;-59
2023/05/03 02:56:36;;;;;;;1.08;0.90;;;17.00;53.00;;;;;;5074771;28;20645;-59
2023/05/03 02:59:01;;;;;;;1.98;1.10;;;17.00;53.00;;;;;;5073901;28;20182;-59
2023/05/03 03:01:27;;;;;;;1.73;0.90;;;17.00;53.00;;;;;;5074200;28;20174;-59
2023/05/03 03:03:53;;;;;;;1.85;0.95;;;17.00;53.00;;;;;;5074316;28;20700;-59
2023/05/03 03:06:18;;;;;;;1.55;1.10;;;17.00;53.00;;;;;;5073256;28;20210;-59
2023/05/03 03:08:44;;;;;;;1.50;0.93;;;16.90;52.90;;;;;;5074568;28;20221;-58
2023/05/03 03:11:09;;;;;;;2.25;0.80;;;17.00;53.00;;;;;;5074227;28;20190;-59
2023/05/03 03:13:38;;;;;;;1.10;1.00;;;17.00;53.00;;;;;;5073505;28;20365;-58
2023/05/03 03:16:05;;;;;;;1.23;0.90;;;16.90;53.00;;;;;;5074272;28;20170;-59
2023/05/03 03:18:31;;;;;;;1.27;1.17;;;16.90;53.00;;;;;;5074199;28;20198;-58
2023/05/03 03:20:56;;;;;;;1.27;0.80;;;16.90;53.00;;;;;;5073407;28;20191;-58
2023/05/03 03:23:22;;;;;;;0.80;0.80;;;16.90;53.00;;;;;;5073877;28;20197;-59
2023/05/03 03:25:47;;;;;;;1.00;0.90;;;16.90;52.90;;;;;;5073801;28;20244;-59
2023/05/03 03:28:13;;;;;;;0.80;0.80;;;16.90;53.00;;;;;;5073107;28;20257;-59
2023/05/03 03:30:38;;;;;;;2.22;1.08;;;16.90;53.00;;;;;;5073953;28;20265;-59
2023/05/03 03:33:05;;;;;;;1.17;1.08;;;16.90;53.00;;;;;;5072655;28;20258;-59
2023/05/03 03:35:30;;;;;;;0.95;0.73;;;16.90;53.00;;;;;;5073364;28;20257;-59
2023/05/03 03:37:56;;;;;;;0.90;0.90;;;16.90;53.00;;;;;;5072548;28;20253;-59
2023/05/03 03:40:21;;;;;;;0.75;0.75;;;16.90;53.00;;;;;;5072720;28;20215;-59
2023/05/03 03:42:47;;;;;;;1.30;0.82;;;16.90;53.00;;;;;;5072713;28;20170;-59
2023/05/03 03:45:12;;;;;;;0.70;0.70;;;16.90;53.00;;;;;;5073298;28;20214;-59
2023/05/03 03:47:38;;;;;;;0.80;0.80;;;16.90;53.00;;;;;;5072888;28;20175;-59
2023/05/03 03:50:04;;;;;;;1.75;1.20;;;16.90;53.00;;;;;;5073535;28;20178;-58
2023/05/03 03:52:29;;;;;;;1.88;0.85;;;16.80;52.90;;;;;;5073659;28;20178;-58
2023/05/03 03:54:55;;;;;;;1.60;1.10;;;16.80;52.90;;;;;;5072941;28;20178;-58
2023/05/03 03:57:21;;;;;;;1.30;1.13;;;16.80;53.00;;;;;;5072854;28;20637;-59
2023/05/03 03:59:46;;;;;;;0.98;0.82;;;16.80;53.00;;;;;;5073395;28;20189;-59
2023/05/03 04:02:12;;;;;;;1.00;0.80;;;16.80;53.00;;;;;;5072287;28;20253;-59
2023/05/03 04:04:37;;;;;;;2.38;1.15;;;16.80;53.00;;;;;;5073133;28;20289;-59
2023/05/03 04:07:03;;;;;;;1.15;0.95;;;16.80;53.00;;;;;;5073600;28;20265;-59
2023/05/03 04:09:29;;;;;;;0.80;0.70;;;16.80;53.00;;;;;;5072165;28;20170;-59
2023/05/03 04:11:54;;;;;;;1.70;0.90;;;16.80;53.00;;;;;;5073146;28;20179;-58
2023/05/03 04:14:20;;;;;;;0.95;0.85;;;16.80;53.00;;;;;;5072798;28;20170;-58
2023/05/03 04:16:45;;;;;;;1.63;1.08;;;16.80;53.00;;;;;;5072413;28;20179;-59
2023/05/03 04:19:11;;;;;;;1.10;1.00;;;16.80;53.00;;;;;;5072735;28;20185;-58
2023/05/03 04:21:37;;;;;;;1.38;1.02;;;16.80;53.00;;;;;;5073700;28;20181;-59
2023/05/03 04:24:04;;;;;;;1.20;0.82;;;16.80;53.00;;;;;;5072437;28;20210;-59
2023/05/03 04:26:31;;;;;;;0.88;0.63;;;16.80;53.00;;;;;;5072859;28;20229;-60
2023/05/03 04:28:57;;;;;;;1.92;1.10;;;16.80;53.60;;;;;;5073070;28;20182;-60
2023/05/03 04:31:22;;;;;;;1.58;0.80;;;16.70;52.90;;;;;;5071956;28;20170;-60
2023/05/03 04:33:48;;;;;;;0.70;0.70;;;16.80;53.00;;;;;;5072861;28;20221;-60
2023/05/03 04:36:14;;;;;;;0.80;0.80;;;16.80;53.00;;;;;;5072547;28;20590;-60
2023/05/03 04:38:41;;;;;;;0.75;0.75;;;16.70;53.00;;;;;;5072287;28;20254;-60
2023/05/03 04:41:07;;;;;;;0.73;0.73;;;16.80;53.00;;;;;;5072512;28;20183;-60
2023/05/03 04:43:33;;;;;;;0.60;0.60;;;16.70;52.90;;;;;;5071965;28;20213;-60
2023/05/03 04:45:59;;;;;;;1.10;0.85;;;16.80;53.00;;;;;;5072736;28;20513;-60
2023/05/03 04:48:24;;;;;;;0.75;0.70;;;16.70;52.90;;;;;;5072414;28;20197;-60
2023/05/03 04:50:51;;;;;;;1.90;1.00;;;16.70;52.90;;;;;;5072219;28;20170;-59
2023/05/03 04:53:16;;;;;;;0.98;0.70;;;16.70;52.90;;;;;;5072450;28;20709;-60
2023/05/03 04:55:42;;;;;;;1.30;0.85;;;16.80;52.90;;;;;;5072761;28;20269;-60
2023/05/03 04:58:07;;;;;;;1.98;1.00;;;16.70;52.80;;;;;;5071842;28;20663;-60
2023/05/03 05:00:33;;;;;;;1.20;0.80;;;16.70;52.90;;;;;;5072682;28;20506;-60
2023/05/03 05:02:59;;;;;;;1.20;0.63;;;16.70;52.90;;;;;;5072808;28;20676;-60
2023/05/03 05:05:25;;;;;;;0.80;0.80;;;16.70;52.90;;;;;;5071758;28;20263;-60
2023/05/03 05:07:51;;;;;;;0.95;0.90;;;16.70;52.90;;;;;;5073428;28;20166;-60
2023/05/03 05:10:17;;;;;;;1.15;1.00;;;16.70;52.90;;;;;;5076428;28;20590;-60
2023/05/03 05:12:42;;;;;;;0.82;0.80;;;16.70;52.80;;;;;;5075825;28;20170;-60
2023/05/03 05:15:08;;;;;;;1.00;0.90;;;16.70;52.80;;;;;;5076233;28;20182;-60
2023/05/03 05:17:33;;;;;;;1.92;0.93;;;16.70;52.80;;;;;;5076456;28;20227;-60
2023/05/03 05:19:59;;;;;;;1.27;1.00;;;16.70;52.80;;;;;;5075853;28;20657;-60
2023/05/03 05:22:25;;;;;;;1.02;0.93;;;16.70;52.80;;;;;;5076323;28;20546;-60
2023/05/03 05:24:50;;;;;;;0.90;0.90;;;16.80;52.80;;;;;;5076413;28;20271;-59
2023/05/03 05:27:16;;;;;;;0.85;0.85;;;16.70;52.80;;;;;;5075266;28;20229;-60
2023/05/03 05:29:41;;;;;;;1.23;0.75;;;16.70;52.80;;;;;;5076502;28;20223;-60
2023/05/03 05:32:07;;;;;;;2.08;0.70;;;16.70;52.80;;;;;;5076012;28;20217;-61
2023/05/03 05:34:32;;;;;;;1.30;0.90;;;16.70;52.80;;;;;;5075578;28;20637;-61
2023/05/03 05:36:58;;;;;;;1.17;0.88;;;16.80;52.80;;;;;;5076254;28;20754;-60
2023/05/03 05:39:24;;;;;;;1.27;1.15;;;16.80;52.80;;;;;;5074870;28;20174;-60
2023/05/03 05:41:50;;;;;;;1.08;0.95;;;16.80;52.80;;;;;;5075368;28;20201;-60
2023/05/03 05:44:15;;;;;;;1.55;0.80;;;16.80;52.80;;;;;;5075710;28;20677;-60
2023/05/03 05:46:41;;;;;;;1.63;1.00;;;16.80;52.80;;;;;;5075872;28;20174;-60
2023/05/03 05:49:06;;;;;;;1.08;0.85;;;16.80;52.80;;;;;;5074830;28;20181;-60
2023/05/03 05:51:32;;;;;;;1.08;0.60;;;16.80;52.80;;;;;;5075839;28;20166;-60
2023/05/03 05:53:57;;;;;;;0.98;0.80;;;16.80;52.80;;;;;;5075004;28;20261;-60
2023/05/03 05:56:23;;;;;;;1.13;0.82;;;16.80;52.80;;;;;;5075490;28;20273;-60
2023/05/03 05:58:48;;;;;;;1.25;0.80;;;16.80;52.80;;;;;;5075660;28;20258;-66
2023/05/03 06:01:14;;;;;;;4.55;0.90;;;16.80;52.60;;;;;;5074821;28;20269;-62
2023/05/03 06:03:40;;;;;;;1.45;0.60;;;16.90;52.70;;;;;;5076329;28;20683;-63
2023/05/03 06:06:05;;;;;;;2.20;0.70;;;16.90;52.70;;;;;;5075574;28;20641;-62
2023/05/03 06:08:31;;;;;;;1.83;1.17;;;16.90;52.70;;;;;;5075041;28;20215;-61
2023/05/03 06:10:57;;;;;;;0.60;0.60;;;16.90;52.60;;;;;;5075570;28;20216;-60
2023/05/03 06:13:23;;;;;;;1.58;0.80;;;17.00;52.70;;;;;;5075247;28;20206;-61
2023/05/03 06:15:49;;;;;;;1.38;1.00;;;17.00;52.70;;;;;;5074589;28;20173;-62
2023/05/03 06:18:14;;;;;;;1.88;1.00;;;17.00;52.70;;;;;;5075030;28;20174;-62
2023/05/03 06:20:40;;;;;;;2.92;0.95;;;17.00;52.90;;;;;;5075314;28;20231;-62
2023/05/03 06:23:06;;;;;;;1.20;0.82;;;17.00;52.90;;;;;;5074445;28;20182;-62
2023/05/03 06:25:32;;;;;;;2.78;0.75;;;17.00;53.00;;;;;;5075269;28;20177;-62
2023/05/03 06:27:57;;;;;;;2.10;0.80;;;16.90;52.90;;;;;;5075228;28;20253;-62
2023/05/03 06:30:24;;;;;;;2.35;0.70;;;17.00;53.00;;;;;;5074246;28;20239;-63
2023/05/03 06:32:50;;;;;;;1.40;0.90;;;17.00;53.00;;;;;;5075452;28;20175;-63
2023/05/03 06:35:18;;;;;;;2.20;0.70;;;17.00;53.00;;;;;;5075109;28;20182;-63
2023/05/03 06:37:43;;;;;;;5.00;0.90;;;17.00;53.00;;;;;;5074588;28;20183;-62
2023/05/03 06:40:09;;;;;;;1.55;1.20;;;17.00;53.00;;;;;;5074920;28;20647;-63
2023/05/03 06:42:34;;;;;;;2.72;1.00;;;17.00;53.00;;;;;;5074998;28;20626;-63
2023/05/03 06:45:00;;;;;;;1.35;0.77;;;17.00;52.90;;;;;;5074182;28;20206;-62
2023/05/03 06:47:25;;;;;;;1.17;0.90;;;17.00;52.90;;;;;;5074635;28;20569;-62
2023/05/03 06:49:51;;;;;;;1.08;0.77;;;17.00;52.90;;;;;;5074835;28;20625;-59
2023/05/03 06:52:16;;;;;;;2.00;0.80;;;17.00;52.70;;;;;;5073855;28;20170;-62
2023/05/03 06:54:42;;;;;;;2.88;0.80;;;17.00;52.70;;;;;;5074729;28;20525;-62
2023/05/03 06:57:09;;;;;;;0.93;0.80;;;17.00;52.70;;;;;;5073754;28;20170;-62
2023/05/03 06:59:34;;;;;;;2.65;1.13;;;17.00;52.70;;;;;;5074774;28;20251;-63
2023/05/03 07:02:00;;;;;;;1.67;1.10;;;17.00;52.60;;;;;;5074862;28;20629;-62
2023/05/03 07:04:25;;;;;;;1.08;0.80;;;17.00;52.60;;;;;;5073856;28;20220;-62
2023/05/03 07:06:51;;;;;;;1.60;1.20;;;17.10;52.60;;;;;;5074753;28;20196;-62
2023/05/03 07:09:17;;;;;;;1.20;1.10;;;17.10;52.60;;;;;;5074256;28;20716;-62
2023/05/03 07:11:48;;;;;;;1.48;0.75;;;17.10;52.60;;;;;;5073862;28;20534;-61
2023/05/03 07:14:14;;;;;;;2.45;1.10;;;17.10;52.60;;;;;;5074289;28;20217;-61
2023/05/03 07:16:39;;;;;;;2.35;0.93;;;17.10;52.60;;;;;;5074657;28;20195;-61
2023/05/03 07:19:05;;;;;;;1.13;1.00;;;17.10;52.60;;;;;;5073255;28;20170;-61
2023/05/03 07:21:31;;;;;;;1.55;1.17;;;17.10;52.60;;;;;;5074493;28;20181;-62
2023/05/03 07:23:56;;;;;;;5.30;0.90;;;17.10;52.60;;;;;;5074098;28;20685;-61
2023/05/03 07:26:22;;;;;;;1.52;1.00;;;17.10;52.60;;;;;;5073060;28;20219;-61
2023/05/03 07:28:47;;;;;;;1.38;0.80;;;17.20;52.60;;;;;;5074089;28;20258;-62
2023/05/03 07:31:13;;;;;;;1.60;0.88;;;17.20;52.70;;;;;;5073461;28;20163;-63
2023/05/03 07:33:39;;;;;;;1.27;0.80;;;17.20;52.60;;;;;;5073544;28;20173;-63
2023/05/03 07:36:04;;;;;;;0.90;0.70;;;17.20;52.60;;;;;;5074036;28;20767;-62
2023/05/03 07:38:30;;;;;;;1.40;1.00;;;17.20;52.60;;;;;;5074001;28;20571;-62
2023/05/03 07:40:56;;;;;;;1.25;0.80;;;17.20;52.60;;;;;;5073164;28;20257;-62
2023/05/03 07:43:22;;;;;;;0.90;0.70;;;17.20;52.60;;;;;;5073427;28;20182;-63
2023/05/03 07:45:48;;;;;;;2.67;0.98;;;17.30;52.70;;;;;;5073804;28;20531;-62
2023/05/03 07:48:13;;;;;;;1.30;0.80;;;17.30;52.70;;;;;;5072931;28;20171;-62
2023/05/03 07:50:42;;;;;;;1.88;1.02;;;17.30;52.60;;;;;;5073971;28;20247;-61
2023/05/03 07:53:08;;;;;;;1.35;1.10;;;17.30;52.60;;;;;;5072285;28;20178;-61
2023/05/03 07:55:35;;;;;;;1.67;0.68;;;17.30;52.60;;;;;;5072886;28;20228;-62
2023/05/03 07:58:01;;;;;;;1.48;0.77;;;17.30;52.50;;;;;;5073713;28;20174;-62
2023/05/03 08:00:27;;;;;;;2.15;1.00;;;17.40;53.20;;;;;;5072517;28;20612;-63
2023/05/03 08:02:52;;;;;;;1.27;0.90;;;17.40;52.40;;;;;;5073725;28;20253;-62
2023/05/03 08:05:18;;;;;;;1.25;0.75;;;17.40;52.50;;;;;;5073151;28;20217;-62
2023/05/03 08:07:43;;;;;;;1.90;0.80;;;17.40;52.40;;;;;;5072863;28;20179;-62
2023/05/03 08:10:09;;;;;;;0.70;0.70;;;17.40;52.40;;;;;;5073227;28;20175;-61
2023/05/03 08:12:35;;;;;;;1.45;1.35;;;17.40;52.30;;;;;;5073242;28;20265;-62
2023/05/03 08:15:00;;;;;;;2.13;0.90;;;17.40;52.30;;;;;;5072702;28;20182;-61
2023/05/03 08:17:26;;;;;;;1.10;1.00;;;17.50;52.30;;;;;;5073059;28;20170;-62
2023/05/03 08:19:54;;;;;;;1.33;0.90;;;17.50;52.30;;;;;;5073394;28;20190;-62
2023/05/03 08:22:20;;;;;;;2.25;0.88;;;17.50;52.20;;;;;;5072251;28;20209;-62
2023/05/03 08:24:45;;;;;;;1.95;0.98;;;17.50;52.80;;;;;;5072944;28;20693;-62
2023/05/03 08:27:11;;;;;;;0.98;0.80;;;17.50;52.10;;;;;;5072708;28;20238;-62
2023/05/03 08:29:37;;;;;;;1.58;0.88;;;17.50;52.20;;;;;;5072563;28;20212;-63
2023/05/03 08:32:03;;;;;;;0.93;0.90;;;17.50;52.50;;;;;;5073059;28;20183;-62
2023/05/03 08:34:29;;;;;;;2.22;0.90;;;17.60;52.10;;;;;;5072769;28;20184;-64
2023/05/03 08:36:55;;;;;;;2.08;0.80;;;17.60;52.10;;;;;;5072384;28;20174;-63
2023/05/03 08:39:21;;;;;;;1.95;1.00;;;17.60;52.10;;;;;;5072664;28;20174;-63
2023/05/03 08:41:46;;;;;;;1.65;0.75;;;17.60;52.10;;;;;;5072732;28;20663;-63
2023/05/03 08:44:13;;;;;;;1.30;0.55;;;17.60;52.00;;;;;;5071023;28;20652;-62
2023/05/03 08:46:38;;;;;;;1.23;0.93;;;17.60;52.10;;;;;;5055078;28;20701;-62
2023/05/03 08:49:06;;;;;;;1.70;0.70;;;17.60;52.00;;;;;;5071739;28;20261;-62
2023/05/03 08:51:32;;;;;;;2.50;0.82;;;17.60;52.00;;;;;;5072067;28;20634;-62
2023/05/03 08:53:58;;;;;;;0.95;0.80;;;17.70;52.10;;;;;;5055131;28;20166;-62
2023/05/03 08:56:42;;;;;;;3.05;1.52;;;17.70;52.10;;;;;;5071210;28;20236;-62
2023/05/03 08:59:10;;;;;;;0.75;0.70;;;17.70;52.20;;;;;;5072751;28;20178;-63
2023/05/03 09:01:36;;;;;;;3.13;0.93;;;17.70;52.90;;;;;;5072753;28;20707;-63
2023/05/03 09:04:02;;;;;;;1.13;0.85;;;17.70;52.20;;;;;;5072120;28;20206;-62
2023/05/03 09:06:28;;;;;;;1.35;0.90;;;17.70;52.20;;;;;;5072435;28;20171;-62
2023/05/03 09:08:54;;;;;;;1.08;0.90;;;17.70;52.20;;;;;;5072712;28;20209;-62
2023/05/03 09:11:30;;;;;;;1.20;0.80;;;17.80;52.30;;;;;;5071552;28;20532;-62
2023/05/03 09:14:15;;;;;;;1.17;0.73;;;17.80;52.30;;;;;;5072713;28;20189;-61
2023/05/03 09:16:43;;;;;;;1.80;0.77;;;17.80;52.40;;;;;;5072561;28;20516;-62
2023/05/03 09:19:10;;;;;;;1.52;0.90;;;17.80;52.50;;;;;;5071499;28;20672;-62
2023/05/03 09:21:36;;;;;;;1.10;0.88;;;17.80;52.50;;;;;;5072788;28;20183;-62
2023/05/03 09:24:03;;;;;;;0.80;0.80;;;17.80;52.60;;;;;;5072566;28;20669;-61
2023/05/03 09:26:35;;;;;;;3.72;1.02;;;17.80;52.60;;;;;;5070253;28;20249;-61
2023/05/03 09:29:01;;;;;;;2.30;0.90;;;17.90;52.60;;;;;;5072804;28;20573;-62
2023/05/03 09:31:28;;;;;;;2.83;0.80;;;17.90;52.60;;;;;;5071092;28;20664;-63
2023/05/03 09:33:54;;;;;;;1.90;1.20;;;17.90;52.70;;;;;;5071966;28;20194;-63
2023/05/03 09:36:19;;;;;;;0.93;0.73;;;17.90;52.60;;;;;;5072292;28;20182;-62
2023/05/03 09:38:45;;;;;;;2.17;0.75;;;17.90;52.50;;;;;;5072500;28;20543;-62
2023/05/03 09:41:10;;;;;;;1.42;0.70;;;18.00;52.70;;;;;;5071388;28;20665;-62
2023/05/03 09:43:51;;;;;;;0.82;0.80;;;18.00;52.70;;;;;;5072125;28;20194;-62
2023/05/03 09:46:16;;;;;;;0.70;0.68;;;18.00;52.80;;;;;;5071332;28;20178;-62
2023/05/03 09:48:42;;;;;;;1.00;0.85;;;18.00;52.70;;;;;;5072255;28;20173;-62
2023/05/03 09:51:08;;;;;;;2.58;0.85;;;18.00;52.80;;;;;;5072236;28;20257;-61
2023/05/03 09:53:34;;;;;;;2.15;0.80;;;18.00;52.80;;;;;;5071834;28;20183;-62
2023/05/03 09:56:01;;;;;;;1.40;0.80;;;18.00;52.80;;;;;;5076026;28;20174;-61
2023/05/03 09:58:29;;;;;;;1.05;0.80;;;18.00;52.90;;;;;;5075631;28;20189;-62
2023/05/03 10:00:55;;;;;;;1.05;0.80;;;18.10;53.00;;;;;;5075067;28;20194;-63
2023/05/03 10:03:27;;;;;;;0.90;0.88;;;18.10;53.00;;;;;;5074431;28;20182;-62
2023/05/03 10:05:52;;;;;;;1.48;0.93;;;18.00;53.00;;;;;;5076011;28;20236;-62
2023/05/03 10:08:37;;;;;;;0.63;0.50;;;18.00;53.00;;;;;;5073606;28;20175;-62
2023/05/03 10:11:03;;;;;;;0.80;0.80;;;18.10;53.00;;;;;;5060329;28;20180;-61
2023/05/03 10:13:28;;;;;;;2.50;1.17;;;18.10;53.00;;;;;;5075283;28;20265;-62
2023/05/03 10:16:22;;;;;;;2.95;1.00;;;18.10;53.00;;;;;;5056962;28;20200;-61
2023/05/03 10:18:55;;;;;;;1.58;0.90;;;18.10;53.00;;;;;;5072233;28;20190;-62
2023/05/03 10:21:43;;;;;;;0.80;0.80;;;18.20;53.10;;;;;;5057050;28;20178;-62
2023/05/03 10:24:13;;;;;;;0.88;0.70;;;18.20;53.10;;;;;;5059294;28;20218;-61
2023/05/03 10:26:46;;;;;;;1.05;0.88;;;18.20;53.10;;;;;;5075198;28;20610;-61
2023/05/03 10:29:30;;;;;;;0.70;0.70;;;18.20;53.10;;;;;;5074552;28;20174;-62
2023/05/03 10:31:56;;;;;;;0.95;0.80;;;18.20;53.10;;;;;;5075084;28;20182;-62
2023/05/03 10:34:22;;;;;;;0.98;0.90;;;18.20;53.10;;;;;;5075099;28;20166;-63
2023/05/03 10:36:51;;;;;;;0.60;0.60;;;18.20;53.10;;;;;;5074672;28;20586;-62
2023/05/03 10:39:17;;;;;;;1.27;0.75;;;18.30;53.20;;;;;;5075009;28;20179;-63
2023/05/03 10:41:43;;;;;;;2.40;0.95;;;18.20;53.10;;;;;;5057644;28;20178;-62
2023/05/03 10:44:28;;;;;;;0.60;0.60;;;18.30;53.20;;;;;;5074029;28;20256;-62
2023/05/03 10:46:54;;;;;;;0.80;0.60;;;18.30;53.10;;;;;;5075256;28;20171;-62
2023/05/03 10:49:20;;;;;;;1.27;0.80;;;18.30;53.10;;;;;;5074108;28;20201;-62
2023/05/03 10:51:46;;;;;;;2.03;1.08;;;18.30;53.10;;;;;;5075083;28;20171;-62
2023/05/03 10:54:12;;;;;;;2.40;0.80;;;18.30;53.10;;;;;;5074722;28;20685;-62
2023/05/03 10:56:48;;;;;;;1.67;0.65;;;18.30;53.10;;;;;;5074196;28;20701;-62
2023/05/03 10:59:13;;;;;;;1.80;0.70;;;18.30;53.10;;;;;;5074543;28;20221;-63
2023/05/03 11:01:39;;;;;;;2.08;0.82;;;18.30;53.20;;;;;;5074884;28;20202;-62
2023/05/03 11:04:22;;;;;;;2.70;0.80;;;18.30;53.20;;;;;;5055952;28;20209;-62
2023/05/03 11:06:50;;;;;;;1.13;0.82;;;18.30;53.20;;;;;;5072647;28;20258;-62
2023/05/03 11:09:16;;;;;;;0.77;0.70;;;18.30;53.20;;;;;;5074322;28;20183;-62
2023/05/03 11:11:42;;;;;;;0.70;0.70;;;18.40;53.20;;;;;;5072581;28;20196;-62
2023/05/03 11:14:08;;;;;;;0.60;0.60;;;18.40;53.20;;;;;;5074415;28;20178;-61
2023/05/03 11:16:39;;;;;;;1.05;0.80;;;18.40;53.10;;;;;;5074608;28;20236;-62
2023/05/03 11:19:05;;;;;;;0.90;0.77;;;18.40;53.20;;;;;;5073484;28;20178;-62
2023/05/03 11:21:31;;;;;;;0.50;0.50;;;18.40;53.20;;;;;;5074537;28;20258;-62
2023/05/03 11:23:57;;;;;;;1.35;0.82;;;18.40;53.20;;;;;;5074159;28;20214;-62
2023/05/03 11:26:24;;;;;;;0.70;0.70;;;18.40;53.10;;;;;;5072987;28;20313;-61
2023/05/03 11:28:50;;;;;;;1.30;0.80;;;18.40;53.80;;;;;;5074381;28;20261;-62
2023/05/03 11:31:16;;;;;;;0.65;0.65;;;18.50;53.20;;;;;;5073902;28;20224;-62
2023/05/03 11:33:41;;;;;;;2.67;0.90;;;18.50;53.20;;;;;;5072320;28;20166;-63
2023/05/03 11:36:08;;;;;;;1.00;0.90;;;18.50;53.20;;;;;;5072730;28;20182;-62
2023/05/03 11:38:34;;;;;;;1.17;0.70;;;18.50;53.20;;;;;;5073257;28;20174;-62
2023/05/03 11:41:00;;;;;;;1.13;0.80;;;18.50;53.20;;;;;;5074125;28;20253;-62
2023/05/03 11:43:26;;;;;;;0.70;0.70;;;18.60;53.20;;;;;;5072277;28;20721;-62
2023/05/03 11:45:56;;;;;;;2.00;0.90;;;18.60;53.20;;;;;;5073241;28;20189;-63
2023/05/03 11:48:22;;;;;;;3.30;0.90;;;18.60;53.20;;;;;;5072258;28;20262;-61
2023/05/03 11:50:54;;;;;;;1.88;0.70;;;18.60;53.20;;;;;;5072992;28;20265;-62
2023/05/03 11:53:23;;;;;;;8.25;1.10;;;18.60;53.30;;;;;;5071445;28;20181;-62
2023/05/03 11:55:52;;;;;;;1.85;1.02;;;18.60;53.90;;;;;;5071168;28;20176;-61
2023/05/03 11:58:27;;;;;;;2.97;1.00;;;18.60;53.30;;;;;;5070668;28;20221;-62
2023/05/03 12:00:54;;;;;;;2.70;0.77;;;18.70;53.30;;;;;;5071359;28;20228;-61
2023/05/03 12:03:24;;;;;;;1.50;0.73;;;18.70;53.40;;;;;;5072275;28;20174;-62
2023/05/03 12:05:51;;;;;;;1.98;0.95;;;18.60;53.40;;;;;;5072878;28;20175;-62
2023/05/03 12:08:18;;;;;;;3.65;0.70;;;18.60;53.50;;;;;;5071805;28;20530;-61
2023/05/03 12:10:44;;;;;;;1.85;0.68;;;18.60;53.40;;;;;;5073090;28;20579;-61
2023/05/03 12:13:10;;;;;;;1.25;0.65;;;18.60;53.30;;;;;;5072658;28;20181;-62
2023/05/03 12:15:36;;;;;;;1.90;0.82;;;18.70;53.30;;;;;;5072481;28;20183;-61
2023/05/03 12:18:04;;;;;;;2.42;0.80;;;18.70;53.30;;;;;;5073099;28;20170;-62
2023/05/03 12:20:30;;;;;;;3.40;1.05;;;18.70;53.40;;;;;;5073286;28;20265;-61
2023/05/03 12:23:01;;;;;;;1.75;0.98;;;18.70;53.40;;;;;;5072560;28;20308;-62
2023/05/03 12:25:27;;;;;;;3.83;1.00;;;18.60;53.40;;;;;;5072495;28;20241;-61
2023/05/03 12:27:53;;;;;;;2.90;1.20;;;18.70;53.40;;;;;;5072277;28;20179;-62
2023/05/03 12:30:20;;;;;;;8.13;1.42;;;18.70;53.40;;;;;;5072748;28;20219;-63
2023/05/03 12:32:45;;;;;;;1.13;0.88;;;18.80;53.40;;;;;;5072862;28;20637;-63
2023/05/03 12:35:11;;;;;;;2.25;0.70;;;18.80;53.40;;;;;;5071909;28;20185;-63
2023/05/03 12:37:37;;;;;;;2.10;0.70;;;18.80;53.40;;;;;;5072927;28;20171;-62
2023/05/03 12:40:03;;;;;;;2.60;0.80;;;18.80;53.40;;;;;;5072736;28;20178;-63
2023/05/03 12:42:29;;;;;;;5.32;0.88;;;18.80;53.40;;;;;;5072019;28;20181;-63
2023/05/03 12:44:57;;;;;;;4.82;0.80;;;18.80;53.50;;;;;;5072842;28;20585;-62